createdAt,value
2018-07-30T00:00:06.765Z,91.41
2018-07-30T00:01:06.729Z,87.76
2018-07-30T00:02:06.698Z,77.75
2018-07-30T00:03:06.673Z,77.17
2018-07-30T00:04:06.666Z,76.59
2018-07-30T00:05:06.609Z,72.80
2018-07-30T00:06:06.588Z,72.90
2018-07-30T00:07:06.554Z,80.60
2018-07-30T00:08:06.516Z,82.52
2018-07-30T00:09:06.495Z,76.69
2018-07-30T00:10:06.465Z,75.49
2018-07-30T00:11:06.425Z,79.73
2018-07-30T00:12:06.389Z,70.21
2018-07-30T00:13:06.369Z,70.50
2018-07-30T00:14:06.385Z,66.55
2018-07-30T00:15:06.295Z,71.84
2018-07-30T00:16:06.263Z,68.96
2018-07-30T00:17:06.241Z,65.59
2018-07-30T00:18:06.218Z,65.69
2018-07-30T00:19:06.188Z,73.83
2018-07-30T00:20:06.159Z,70.56
2018-07-30T00:21:06.140Z,74.25
2018-07-30T00:22:06.088Z,75.02
2018-07-30T00:23:06.046Z,68.57
2018-07-30T00:24:06.034Z,65.01
2018-07-30T00:25:05.986Z,66.52
2018-07-30T00:26:05.965Z,67.10
2018-07-30T00:27:05.932Z,63.95
2018-07-30T00:28:05.903Z,65.66
2018-07-30T00:29:05.863Z,59.69
2018-07-30T00:30:05.838Z,62.29
2018-07-30T00:31:05.802Z,61.71
2018-07-30T00:32:05.767Z,59.41
2018-07-30T00:33:05.753Z,55.56
2018-07-30T00:34:05.703Z,52.77
2018-07-30T00:35:05.682Z,52.77
2018-07-30T00:36:05.660Z,47.30
2018-07-30T00:37:05.621Z,41.53
2018-07-30T00:38:05.579Z,41.62
2018-07-30T00:39:05.545Z,44.22
2018-07-30T00:40:05.526Z,39.70
2018-07-30T00:41:05.490Z,39.79
2018-07-30T00:42:05.477Z,41.62
2018-07-30T00:43:05.431Z,42.68
2018-07-30T00:44:05.436Z,43.07
2018-07-30T00:45:05.381Z,43.93
2018-07-30T00:46:05.330Z,39.79
2018-07-30T00:47:05.350Z,39.99
2018-07-30T00:48:05.304Z,45.37
2018-07-30T00:49:05.245Z,59.79
2018-07-30T00:50:05.211Z,66.91
2018-07-30T00:51:05.175Z,66.84
2018-07-30T00:52:05.160Z,60.78
2018-07-30T00:53:05.131Z,57.22
2018-07-30T00:54:05.089Z,58.06
2018-07-30T00:55:05.054Z,54.99
2018-07-30T00:56:05.038Z,61.81
2018-07-30T00:57:04.996Z,52.68
2018-07-30T00:58:04.964Z,57.20
2018-07-30T00:59:04.943Z,53.83
2018-07-30T01:00:04.902Z,47.20
2018-07-30T01:01:04.907Z,47.49
2018-07-30T01:02:04.836Z,49.99
2018-07-30T01:03:04.804Z,50.08
2018-07-30T01:04:04.781Z,44.99
2018-07-30T01:05:04.746Z,42.97
2018-07-30T01:06:04.722Z,44.70
2018-07-30T01:07:04.697Z,43.35
2018-07-30T01:08:04.681Z,40.45
2018-07-30T01:09:04.628Z,38.16
2018-07-30T01:10:04.649Z,36.43
2018-07-30T01:11:04.546Z,34.88
2018-07-30T01:12:04.530Z,31.51
2018-07-30T01:13:04.497Z,29.40
2018-07-30T01:14:04.461Z,30.28
2018-07-30T01:15:04.423Z,28.26
2018-07-30T01:16:04.419Z,29.21
2018-07-30T01:17:04.370Z,30.08
2018-07-30T01:18:04.327Z,31.51
2018-07-30T01:19:04.313Z,37.01
2018-07-30T01:20:04.297Z,37.66
2018-07-30T01:21:04.247Z,35.93
2018-07-30T01:22:04.218Z,37.76
2018-07-30T01:23:10.985Z,40.08
2018-07-30T01:24:04.148Z,38.54
2018-07-30T01:25:04.112Z,37.49
2018-07-30T01:26:04.096Z,38.54
2018-07-30T01:27:04.051Z,41.12
2018-07-30T01:28:04.024Z,42.85
2018-07-30T01:29:03.988Z,41.70
2018-07-30T01:30:03.997Z,54.86
2018-07-30T01:31:03.939Z,52.46
2018-07-30T01:32:03.914Z,55.82
2018-07-30T01:33:03.871Z,54.28
2018-07-30T01:34:03.852Z,54.41
2018-07-30T01:35:03.808Z,50.63
2018-07-30T01:36:03.787Z,51.40
2018-07-30T01:37:03.730Z,50.73
2018-07-30T01:38:03.824Z,47.36
2018-07-30T01:39:03.683Z,48.43
2018-07-30T01:40:03.659Z,47.27
2018-07-30T01:41:03.659Z,44.77
2018-07-30T01:42:03.593Z,44.96
2018-07-30T01:43:03.591Z,41.89
2018-07-30T01:44:03.528Z,39.01
2018-07-30T01:45:03.490Z,38.89
2018-07-30T01:46:03.484Z,41.87
2018-07-30T01:47:03.502Z,40.05
2018-07-30T01:48:03.394Z,37.55
2018-07-30T01:49:03.390Z,37.45
2018-07-30T01:50:03.325Z,39.56
2018-07-30T01:51:03.317Z,39.18
2018-07-30T01:52:03.288Z,37.16
2018-07-30T01:53:03.254Z,40.62
2018-07-30T01:54:03.204Z,42.73
2018-07-30T01:55:03.162Z,43.60
2018-07-30T01:56:03.131Z,42.35
2018-07-30T01:57:03.162Z,43.02
2018-07-30T01:58:03.077Z,40.05
2018-07-30T01:59:03.076Z,39.95
2018-07-30T02:00:03.006Z,38.32
2018-07-30T02:01:02.997Z,41.39
2018-07-30T02:02:03.006Z,38.29
2018-07-30T02:03:02.909Z,33.03
2018-07-30T02:04:02.885Z,34.07
2018-07-30T02:05:02.865Z,38.20
2018-07-30T02:06:02.831Z,33.98
2018-07-30T02:07:02.796Z,24.95
2018-07-30T02:08:02.757Z,25.73
2018-07-30T02:09:02.731Z,28.60
2018-07-30T02:10:02.714Z,29.66
2018-07-30T02:11:02.656Z,31.20
2018-07-30T02:12:02.623Z,29.56
2018-07-30T02:13:02.647Z,32.64
2018-07-30T02:14:02.567Z,39.16
2018-07-30T02:15:02.535Z,39.16
2018-07-30T02:16:02.602Z,36.86
2018-07-30T02:17:02.497Z,32.25
2018-07-30T02:18:02.451Z,35.61
2018-07-30T02:19:02.416Z,34.17
2018-07-30T02:20:02.400Z,35.22
2018-07-30T02:21:02.340Z,34.27
2018-07-30T02:22:02.314Z,34.55
2018-07-30T02:23:02.281Z,36.28
2018-07-30T02:24:02.292Z,34.36
2018-07-30T02:25:02.244Z,27.64
2018-07-30T02:26:02.197Z,25.05
2018-07-30T02:27:02.163Z,21.01
2018-07-30T02:28:02.169Z,21.21
2018-07-30T02:29:02.089Z,17.76
2018-07-30T02:30:02.058Z,18.71
2018-07-30T02:31:02.071Z,17.47
2018-07-30T02:32:02.023Z,16.89
2018-07-30T02:33:01.955Z,20.06
2018-07-30T02:34:01.951Z,23.52
2018-07-30T02:35:01.913Z,18.52
2018-07-30T02:36:01.878Z,23.22
2018-07-30T02:37:01.851Z,29.55
2018-07-30T02:38:01.877Z,26.01
2018-07-30T02:39:01.775Z,28.70
2018-07-30T02:40:01.743Z,21.88
2018-07-30T02:41:01.720Z,20.15
2018-07-30T02:42:01.701Z,23.61
2018-07-30T02:43:01.651Z,29.93
2018-07-30T02:44:01.616Z,35.49
2018-07-30T02:45:01.596Z,37.13
2018-07-30T02:46:01.545Z,29.45
2018-07-30T02:47:01.573Z,32.14
2018-07-30T02:48:01.486Z,35.78
2018-07-30T02:49:01.461Z,35.97
2018-07-30T02:50:01.467Z,34.82
2018-07-30T02:51:01.381Z,25.99
2018-07-30T02:52:01.389Z,15.54
2018-07-30T02:53:01.318Z,16.31
2018-07-30T02:54:01.299Z,15.83
2018-07-30T02:55:01.270Z,17.65
2018-07-30T02:56:01.223Z,15.64
2018-07-30T02:57:01.187Z,17.55
2018-07-30T02:58:01.162Z,17.17
2018-07-30T02:59:01.153Z,17.17
2018-07-30T03:00:01.110Z,11.51
2018-07-30T03:01:01.094Z,10.46
2018-07-30T03:02:01.026Z,13.71
2018-07-30T03:03:00.994Z,12.18
2018-07-30T03:04:00.973Z,8.25
2018-07-30T03:05:00.928Z,9.11
2018-07-30T03:06:00.893Z,12.57
2018-07-30T03:07:00.866Z,13.71
2018-07-30T03:08:00.840Z,13.43
2018-07-30T03:09:00.799Z,24.85
2018-07-30T03:10:00.759Z,24.94
2018-07-30T03:11:00.754Z,24.85
2018-07-30T03:12:00.704Z,15.83
2018-07-30T03:13:00.664Z,19.38
2018-07-30T03:14:00.633Z,10.07
2018-07-30T03:15:00.610Z,12.95
2018-07-30T03:16:00.569Z,14.10
2018-07-30T03:17:00.537Z,14.39
2018-07-30T03:18:00.527Z,15.83
2018-07-30T03:19:00.494Z,10.64
2018-07-30T03:20:00.443Z,12.66
2018-07-30T03:21:00.406Z,12.76
2018-07-30T03:22:00.418Z,15.16
2018-07-30T03:23:00.350Z,17.36
2018-07-30T03:24:00.308Z,21.30
2018-07-30T03:25:00.314Z,22.54
2018-07-30T03:26:00.260Z,19.18
2018-07-30T03:27:00.234Z,16.50
2018-07-30T03:28:00.190Z,15.06
2018-07-30T03:29:00.148Z,16.11
2018-07-30T03:30:00.114Z,15.35
2018-07-30T03:31:00.099Z,12.65
2018-07-30T03:32:00.065Z,8.82
2018-07-30T03:33:00.053Z,7.38
2018-07-30T03:33:59.992Z,5.65
2018-07-30T03:34:59.948Z,7.96
2018-07-30T03:35:59.935Z,10.64
2018-07-30T03:36:59.899Z,13.23
2018-07-30T03:38:00.560Z,15.82
2018-07-30T03:39:00.560Z,19.75
2018-07-30T03:40:00.532Z,20.14
2018-07-30T03:41:00.536Z,17.74
2018-07-30T03:41:59.747Z,18.22
2018-07-30T03:42:59.689Z,15.63
2018-07-30T03:43:59.679Z,13.23
2018-07-30T03:44:59.652Z,4.50
2018-07-30T03:45:59.608Z,0.86
2018-07-30T03:46:59.558Z,0.00
2018-07-30T03:47:59.536Z,1.82
2018-07-30T03:48:59.500Z,6.99
2018-07-30T03:49:59.482Z,12.27
2018-07-30T03:50:59.447Z,11.21
2018-07-30T03:51:59.433Z,4.50
2018-07-30T03:52:59.372Z,0.86
2018-07-30T03:53:59.346Z,3.64
2018-07-30T03:54:59.310Z,6.04
2018-07-30T03:55:59.273Z,9.68
2018-07-30T03:56:59.233Z,9.48
2018-07-30T03:57:59.269Z,5.17
2018-07-30T03:58:59.171Z,5.94
2018-07-30T03:59:59.159Z,2.11
2018-07-30T04:00:59.123Z,0.00
2018-07-30T04:01:59.106Z,0.00
2018-07-30T04:02:59.047Z,0.00
2018-07-30T04:03:59.003Z,0.00
2018-07-30T04:04:58.976Z,0.00
2018-07-30T04:05:58.960Z,0.00
2018-07-30T04:06:58.916Z,0.00
2018-07-30T04:07:58.940Z,0.00
2018-07-30T04:08:58.875Z,0.00
2018-07-30T04:09:58.802Z,0.00
2018-07-30T04:10:58.772Z,0.00
2018-07-30T04:11:58.753Z,0.00
2018-07-30T04:12:58.728Z,0.00
2018-07-30T04:13:58.767Z,0.00
2018-07-30T04:14:58.652Z,0.00
2018-07-30T04:15:58.702Z,0.00
2018-07-30T04:16:58.574Z,0.00
2018-07-30T04:17:58.541Z,0.00
2018-07-30T04:18:58.522Z,0.00
2018-07-30T04:19:58.490Z,0.00
2018-07-30T04:20:58.446Z,0.00
2018-07-30T04:21:58.423Z,0.00
2018-07-30T04:22:58.386Z,0.00
2018-07-30T04:23:58.341Z,0.00
2018-07-30T04:24:58.325Z,0.00
2018-07-30T04:25:58.275Z,0.00
2018-07-30T04:26:58.242Z,0.00
2018-07-30T04:27:58.217Z,0.00
2018-07-30T04:28:58.180Z,0.00
2018-07-30T04:29:58.148Z,0.00
2018-07-30T04:30:58.117Z,0.00
2018-07-30T04:31:58.122Z,0.00
2018-07-30T04:32:58.049Z,0.00
2018-07-30T04:33:58.041Z,0.00
2018-07-30T04:34:58.027Z,0.00
2018-07-30T04:35:57.960Z,0.00
2018-07-30T04:36:57.925Z,0.00
2018-07-30T04:37:57.897Z,0.00
2018-07-30T04:38:57.853Z,0.00
2018-07-30T04:39:57.818Z,0.00
2018-07-30T04:40:57.803Z,0.00
2018-07-30T04:41:57.783Z,0.00
2018-07-30T04:42:57.719Z,0.00
2018-07-30T04:43:57.696Z,0.00
2018-07-30T04:44:57.679Z,0.19
2018-07-30T04:45:57.641Z,1.72
2018-07-30T04:46:57.645Z,2.69
2018-07-30T04:47:57.564Z,4.12
2018-07-30T04:48:57.543Z,6.33
2018-07-30T04:49:57.495Z,6.43
2018-07-30T04:50:57.530Z,7.29
2018-07-30T04:51:57.441Z,7.29
2018-07-30T04:52:57.401Z,14.77
2018-07-30T04:53:57.365Z,15.16
2018-07-30T04:54:57.332Z,16.31
2018-07-30T04:55:57.306Z,17.84
2018-07-30T04:56:57.285Z,16.78
2018-07-30T04:57:57.253Z,17.65
2018-07-30T04:58:57.202Z,18.32
2018-07-30T04:59:57.178Z,20.53
2018-07-30T05:00:57.134Z,20.62
2018-07-30T05:01:57.126Z,21.58
2018-07-30T05:02:57.074Z,24.66
2018-07-30T05:03:57.109Z,26.97
2018-07-30T05:04:57.009Z,29.85
2018-07-30T05:05:57.000Z,31.87
2018-07-30T05:06:56.972Z,32.82
2018-07-30T05:07:56.946Z,35.22
2018-07-30T05:08:56.894Z,36.86
2018-07-30T05:09:56.853Z,38.68
2018-07-30T05:10:56.818Z,41.29
2018-07-30T05:11:56.808Z,45.71
2018-07-30T05:12:56.773Z,55.34
2018-07-30T05:13:56.727Z,63.45
2018-07-30T05:14:56.682Z,91.75
2018-07-30T05:15:56.682Z,91.80
2018-07-30T05:16:56.628Z,99.99
2018-07-30T05:17:56.602Z,99.99
2018-07-30T05:18:56.584Z,99.99
2018-07-30T05:19:56.531Z,99.99
2018-07-30T05:20:56.503Z,99.99
2018-07-30T05:21:56.477Z,99.99
2018-07-30T05:22:56.436Z,99.99
2018-07-30T05:23:56.432Z,99.99
2018-07-30T05:24:56.377Z,99.99
2018-07-30T05:25:56.370Z,99.99
2018-07-30T05:26:56.373Z,99.99
2018-07-30T05:27:56.301Z,99.99
2018-07-30T05:28:56.270Z,99.99
2018-07-30T05:29:56.272Z,99.99
2018-07-30T05:30:56.202Z,99.99
2018-07-30T05:31:56.186Z,99.99
2018-07-30T05:32:56.158Z,99.99
2018-07-30T05:33:56.126Z,99.99
2018-07-30T05:34:56.087Z,99.99
2018-07-30T05:35:56.051Z,99.99
2018-07-30T05:36:56.052Z,99.99
2018-07-30T05:37:56.029Z,99.99
2018-07-30T05:38:55.975Z,99.99
2018-07-30T05:39:55.954Z,99.99
2018-07-30T05:40:55.933Z,99.99
2018-07-30T05:41:55.947Z,99.99
2018-07-30T05:42:55.873Z,99.99
2018-07-30T05:43:55.828Z,99.99
2018-07-30T05:44:55.825Z,99.99
2018-07-30T05:45:55.807Z,99.99
2018-07-30T05:46:55.833Z,99.99
2018-07-30T05:47:55.705Z,99.99
2018-07-30T05:48:55.682Z,99.99
2018-07-30T05:49:55.694Z,99.99
2018-07-30T05:50:55.625Z,99.99
2018-07-30T05:51:55.647Z,99.99
2018-07-30T05:52:55.602Z,99.99
2018-07-30T05:53:55.542Z,99.99
2018-07-30T05:54:55.547Z,99.99
2018-07-30T05:55:55.484Z,99.99
2018-07-30T05:56:55.467Z,99.99
2018-07-30T05:57:55.434Z,99.99
2018-07-30T05:58:55.413Z,99.99
2018-07-30T05:59:55.380Z,99.99
2018-07-30T06:00:55.412Z,99.99
2018-07-30T06:01:55.338Z,99.99
2018-07-30T06:02:55.274Z,99.99
2018-07-30T06:03:55.313Z,99.99
2018-07-30T06:04:55.231Z,99.99
2018-07-30T06:05:55.199Z,99.99
2018-07-30T06:06:55.219Z,99.99
2018-07-30T06:07:55.139Z,99.99
2018-07-30T06:08:55.128Z,99.99
2018-07-30T06:09:55.103Z,99.99
2018-07-30T06:10:55.069Z,99.99
2018-07-30T06:11:55.048Z,99.99
2018-07-30T06:12:55.003Z,99.99
2018-07-30T06:13:54.978Z,99.99
2018-07-30T06:14:54.942Z,99.99
2018-07-30T06:15:54.916Z,99.99
2018-07-30T06:16:54.878Z,99.99
2018-07-30T06:17:54.852Z,99.99
2018-07-30T06:18:54.811Z,99.99
2018-07-30T06:19:54.779Z,99.99
2018-07-30T06:20:54.861Z,99.99
2018-07-30T06:21:54.731Z,99.99
2018-07-30T06:22:54.708Z,99.99
2018-07-30T06:23:54.685Z,99.99
2018-07-30T06:24:54.647Z,99.99
2018-07-30T06:25:54.637Z,99.99
2018-07-30T06:26:54.704Z,99.99
2018-07-30T06:27:54.604Z,99.99
2018-07-30T06:28:54.514Z,99.99
2018-07-30T06:29:54.493Z,99.99
2018-07-30T06:30:54.460Z,99.99
2018-07-30T06:31:54.451Z,99.99
2018-07-30T06:32:54.429Z,99.99
2018-07-30T06:33:54.383Z,99.99
2018-07-30T06:34:54.347Z,99.99
2018-07-30T06:35:54.342Z,99.99
2018-07-30T06:36:54.303Z,99.99
2018-07-30T06:37:54.281Z,99.99
2018-07-30T06:38:54.222Z,99.99
2018-07-30T06:39:54.198Z,99.99
2018-07-30T06:40:54.168Z,99.99
2018-07-30T06:41:54.136Z,99.99
2018-07-30T06:42:54.119Z,99.99
2018-07-30T06:43:54.097Z,99.99
2018-07-30T06:44:54.069Z,99.99
2018-07-30T06:45:54.028Z,99.99
2018-07-30T06:46:54.025Z,99.99
2018-07-30T06:47:54.003Z,99.99
2018-07-30T06:48:53.982Z,99.99
2018-07-30T06:49:53.913Z,99.99
2018-07-30T06:50:53.899Z,99.99
2018-07-30T06:51:53.880Z,99.99
2018-07-30T06:52:53.837Z,99.99
2018-07-30T06:53:53.798Z,99.99
2018-07-30T06:54:53.782Z,99.99
2018-07-30T06:55:53.748Z,99.99
2018-07-30T06:56:53.731Z,99.99
2018-07-30T06:57:53.712Z,99.99
2018-07-30T06:58:53.690Z,99.99
2018-07-30T06:59:53.637Z,99.99
2018-07-30T07:00:53.604Z,99.99
2018-07-30T07:01:53.587Z,88.05
2018-07-30T07:02:53.546Z,75.78
2018-07-30T07:03:53.526Z,72.98
2018-07-30T07:04:53.560Z,69.11
2018-07-30T07:05:53.476Z,65.13
2018-07-30T07:06:53.472Z,68.39
2018-07-30T07:07:53.422Z,61.51
2018-07-30T07:08:53.415Z,58.82
2018-07-30T07:09:53.370Z,62.67
2018-07-30T07:10:53.406Z,63.52
2018-07-30T07:11:53.382Z,62.50
2018-07-30T07:12:53.312Z,60.76
2018-07-30T07:13:53.297Z,62.43
2018-07-30T07:14:53.339Z,56.46
2018-07-30T07:15:53.266Z,56.11
2018-07-30T07:16:53.232Z,56.09
2018-07-30T07:17:53.212Z,58.71
2018-07-30T07:18:53.173Z,53.38
2018-07-30T07:19:53.226Z,56.42
2018-07-30T07:20:53.176Z,54.36
2018-07-30T07:21:53.217Z,51.96
2018-07-30T07:22:53.082Z,55.02
2018-07-30T07:23:53.094Z,53.16
2018-07-30T07:24:53.087Z,53.19
2018-07-30T07:25:53.051Z,53.09
2018-07-30T07:26:53.135Z,52.33
2018-07-30T07:27:52.993Z,48.55
2018-07-30T07:28:52.973Z,50.34
2018-07-30T07:29:52.963Z,48.96
2018-07-30T07:30:52.962Z,49.85
2018-07-30T07:31:52.985Z,50.24
2018-07-30T07:32:52.905Z,50.71
2018-07-30T07:33:52.904Z,51.22
2018-07-30T07:34:52.895Z,49.40
2018-07-30T07:35:52.877Z,46.72
2018-07-30T07:36:52.838Z,46.82
2018-07-30T07:37:52.847Z,47.41
2018-07-30T07:38:52.824Z,46.03
2018-07-30T07:39:52.811Z,46.75
2018-07-30T07:40:52.790Z,46.87
2018-07-30T07:41:52.746Z,47.56
2018-07-30T07:42:52.747Z,46.35
2018-07-30T07:43:52.718Z,45.41
2018-07-30T07:44:52.749Z,45.71
2018-07-30T07:45:52.745Z,45.74
2018-07-30T07:46:52.695Z,45.56
2018-07-30T07:47:52.655Z,46.87
2018-07-30T07:48:52.675Z,45.73
2018-07-30T07:49:52.648Z,47.08
2018-07-30T07:50:52.852Z,45.25
2018-07-30T07:51:52.641Z,42.13
2018-07-30T07:52:52.565Z,42.13
2018-07-30T07:53:52.603Z,40.94
2018-07-30T07:54:52.609Z,41.71
2018-07-30T07:55:52.619Z,41.28
2018-07-30T07:56:52.541Z,42.68
2018-07-30T07:57:52.515Z,44.29
2018-07-30T07:58:52.524Z,46.13
2018-07-30T07:59:52.489Z,45.89
2018-07-30T08:00:52.452Z,49.92
2018-07-30T08:01:52.452Z,47.88
2018-07-30T08:02:52.429Z,47.80
2018-07-30T08:03:52.470Z,45.29
2018-07-30T08:04:52.414Z,44.06
2018-07-30T08:05:52.391Z,44.67
2018-07-30T08:06:52.447Z,42.60
2018-07-30T08:07:52.407Z,39.25
2018-07-30T08:08:52.376Z,38.79
2018-07-30T08:09:52.415Z,38.75
2018-07-30T08:10:52.408Z,38.65
2018-07-30T08:11:52.344Z,39.89
2018-07-30T08:12:52.314Z,40.09
2018-07-30T08:13:52.264Z,41.31
2018-07-30T08:14:52.259Z,45.29
2018-07-30T08:15:52.243Z,43.79
2018-07-30T08:16:52.295Z,44.21
2018-07-30T08:17:52.222Z,44.68
2018-07-30T08:18:52.196Z,43.18
2018-07-30T08:19:52.197Z,44.56
2018-07-30T08:20:52.176Z,44.56
2018-07-30T08:21:52.151Z,42.93
2018-07-30T08:22:52.169Z,41.96
2018-07-30T08:23:52.136Z,42.04
2018-07-30T08:24:52.118Z,41.30
2018-07-30T08:25:52.117Z,39.73
2018-07-30T08:26:52.089Z,42.47
2018-07-30T08:27:52.069Z,42.77
2018-07-30T08:28:52.061Z,40.33
2018-07-30T08:29:52.043Z,38.39
2018-07-30T08:30:52.041Z,37.34
2018-07-30T08:31:52.059Z,37.26
2018-07-30T08:32:52.036Z,37.36
2018-07-30T08:33:52.003Z,38.67
2018-07-30T08:34:51.972Z,37.92
2018-07-30T08:35:51.972Z,38.75
2018-07-30T08:36:52.009Z,40.92
2018-07-30T08:37:51.941Z,40.15
2018-07-30T08:38:51.987Z,41.00
2018-07-30T08:39:51.935Z,42.50
2018-07-30T08:40:51.917Z,39.65
2018-07-30T08:41:51.889Z,39.20
2018-07-30T08:42:51.892Z,37.94
2018-07-30T08:43:51.853Z,39.03
2018-07-30T08:44:51.911Z,37.94
2018-07-30T08:45:51.871Z,38.12
2018-07-30T08:46:51.843Z,40.88
2018-07-30T08:47:51.807Z,37.43
2018-07-30T08:48:51.816Z,39.64
2018-07-30T08:49:51.795Z,37.84
2018-07-30T08:50:51.804Z,37.46
2018-07-30T08:51:51.763Z,37.23
2018-07-30T08:52:51.759Z,37.37
2018-07-30T08:53:51.753Z,38.95
2018-07-30T08:54:51.732Z,39.20
2018-07-30T08:55:51.715Z,40.88
2018-07-30T08:56:51.700Z,40.96
2018-07-30T08:57:51.691Z,42.73
2018-07-30T08:58:51.675Z,40.76
2018-07-30T08:59:51.641Z,40.90
2018-07-30T09:00:51.631Z,41.53
2018-07-30T09:01:51.607Z,39.06
2018-07-30T09:02:51.593Z,38.65
2018-07-30T09:03:51.569Z,39.26
2018-07-30T09:04:51.563Z,40.48
2018-07-30T09:05:51.543Z,44.07
2018-07-30T09:06:51.570Z,42.65
2018-07-30T09:07:51.524Z,43.10
2018-07-30T09:08:51.527Z,42.38
2018-07-30T09:09:51.488Z,39.86
2018-07-30T09:10:51.488Z,39.54
2018-07-30T09:11:51.476Z,40.08
2018-07-30T09:12:51.603Z,41.86
2018-07-30T09:13:51.440Z,43.10
2018-07-30T09:14:51.412Z,42.55
2018-07-30T09:15:51.401Z,43.75
2018-07-30T09:16:51.404Z,43.30
2018-07-30T09:17:51.384Z,41.53
2018-07-30T09:18:51.366Z,42.45
2018-07-30T09:19:51.350Z,42.90
2018-07-30T09:20:51.351Z,44.42
2018-07-30T09:21:51.314Z,44.47
2018-07-30T09:22:51.311Z,45.92
2018-07-30T09:23:51.320Z,48.47
2018-07-30T09:24:51.276Z,45.92
2018-07-30T09:25:51.263Z,44.12
2018-07-30T09:26:51.298Z,45.00
2018-07-30T09:27:51.230Z,42.69
2018-07-30T09:28:51.209Z,41.14
2018-07-30T09:29:51.194Z,38.79
2018-07-30T09:30:51.191Z,37.98
2018-07-30T09:31:51.181Z,38.37
2018-07-30T09:32:51.231Z,37.98
2018-07-30T09:33:51.135Z,37.94
2018-07-30T09:34:51.128Z,36.97
2018-07-30T09:35:51.117Z,38.33
2018-07-30T09:36:51.190Z,38.31
2018-07-30T09:37:51.064Z,38.20
2018-07-30T09:38:51.225Z,37.30
2018-07-30T09:39:51.056Z,38.71
2018-07-30T09:40:51.023Z,41.16
2018-07-30T09:41:51.009Z,40.43
2018-07-30T09:42:51.006Z,38.91
2018-07-30T09:43:50.990Z,39.32
2018-07-30T09:44:51.008Z,39.42
2018-07-30T09:45:51.020Z,38.18
2018-07-30T09:46:50.947Z,39.03
2018-07-30T09:47:50.938Z,40.92
2018-07-30T09:48:50.917Z,40.76
2018-07-30T09:49:50.893Z,42.28
2018-07-30T09:50:50.902Z,42.65
2018-07-30T09:51:50.886Z,43.76
2018-07-30T09:52:50.872Z,45.00
2018-07-30T09:53:50.850Z,46.05
2018-07-30T09:54:50.849Z,45.34
2018-07-30T09:55:50.820Z,47.40
2018-07-30T09:56:50.934Z,48.19
2018-07-30T09:57:50.774Z,46.50
2018-07-30T09:58:50.769Z,46.37
2018-07-30T09:59:50.779Z,55.51
2018-07-30T10:00:50.737Z,49.21
2018-07-30T10:01:50.717Z,47.45
2018-07-30T10:02:50.724Z,49.09
2018-07-30T10:03:50.703Z,48.68
2018-07-30T10:04:50.675Z,51.12
2018-07-30T10:05:50.639Z,54.62
2018-07-30T10:06:50.666Z,52.56
2018-07-30T10:07:50.611Z,55.33
2018-07-30T10:08:50.588Z,57.29
2018-07-30T10:09:50.585Z,52.98
2018-07-30T10:10:50.591Z,52.10
2018-07-30T10:11:50.539Z,52.67
2018-07-30T10:12:50.524Z,49.53
2018-07-30T10:13:50.507Z,47.85
2018-07-30T10:14:50.485Z,49.99
2018-07-30T10:15:50.474Z,54.50
2018-07-30T10:16:50.458Z,56.06
2018-07-30T10:17:50.520Z,56.36
2018-07-30T10:18:50.473Z,58.44
2018-07-30T10:19:50.425Z,56.06
2018-07-30T10:20:50.419Z,62.32
2018-07-30T10:21:50.356Z,57.60
2018-07-30T10:22:50.359Z,50.95
2018-07-30T10:23:50.327Z,55.16
2018-07-30T10:24:50.325Z,57.82
2018-07-30T10:25:50.290Z,55.39
2018-07-30T10:26:50.275Z,48.13
2018-07-30T10:27:50.264Z,51.86
2018-07-30T10:28:50.294Z,42.28
2018-07-30T10:29:50.219Z,39.06
2018-07-30T10:30:50.265Z,40.31
2018-07-30T10:31:50.162Z,40.96
2018-07-30T10:32:50.153Z,41.41
2018-07-30T10:33:50.150Z,40.69
2018-07-30T10:34:50.119Z,40.25
2018-07-30T10:35:50.096Z,37.94
2018-07-30T10:36:50.076Z,38.67
2018-07-30T10:37:50.061Z,36.08
2018-07-30T10:38:50.035Z,35.80
2018-07-30T10:39:50.049Z,39.70
2018-07-30T10:40:49.997Z,38.43
2018-07-30T10:41:49.987Z,38.89
2018-07-30T10:42:49.953Z,39.66
2018-07-30T10:43:49.939Z,41.25
2018-07-30T10:44:49.916Z,41.27
2018-07-30T10:45:49.907Z,42.04
2018-07-30T10:46:49.884Z,38.95
2018-07-30T10:47:49.908Z,37.39
2018-07-30T10:48:49.851Z,36.44
2018-07-30T10:49:49.825Z,37.18
2018-07-30T10:50:49.831Z,34.22
2018-07-30T10:51:49.793Z,35.57
2018-07-30T10:52:49.780Z,37.18
2018-07-30T10:53:49.792Z,36.27
2018-07-30T10:54:49.769Z,37.38
2018-07-30T10:55:49.724Z,36.11
2018-07-30T10:56:49.718Z,36.33
2018-07-30T10:57:49.711Z,36.23
2018-07-30T10:58:49.657Z,34.41
2018-07-30T10:59:49.655Z,35.70
2018-07-30T11:00:49.645Z,36.96
2018-07-30T11:01:49.626Z,38.04
2018-07-30T11:02:49.604Z,38.75
2018-07-30T11:03:49.588Z,37.39
2018-07-30T11:04:49.588Z,36.14
2018-07-30T11:05:49.569Z,36.06
2018-07-30T11:06:49.536Z,36.47
2018-07-30T11:07:49.563Z,37.96
2018-07-30T11:08:49.527Z,38.06
2018-07-30T11:09:49.493Z,38.81
2018-07-30T11:10:49.477Z,40.35
2018-07-30T11:11:49.489Z,42.75
2018-07-30T11:12:49.441Z,41.49
2018-07-30T11:13:49.421Z,41.29
2018-07-30T11:14:49.530Z,42.00
2018-07-30T11:15:49.401Z,42.34
2018-07-30T11:16:49.378Z,39.32
2018-07-30T11:17:49.353Z,39.64
2018-07-30T11:18:49.397Z,38.79
2018-07-30T11:19:49.331Z,40.23
2018-07-30T11:20:49.366Z,39.31
2018-07-30T11:21:49.290Z,41.35
2018-07-30T11:22:49.296Z,42.21
2018-07-30T11:23:49.262Z,44.06
2018-07-30T11:24:49.239Z,46.00
2018-07-30T11:25:49.217Z,43.08
2018-07-30T11:26:49.217Z,47.07
2018-07-30T11:27:49.299Z,40.80
2018-07-30T11:28:49.165Z,41.14
2018-07-30T11:29:49.165Z,38.46
2018-07-30T11:30:49.137Z,39.70
2018-07-30T11:31:49.125Z,40.56
2018-07-30T11:32:49.142Z,42.21
2018-07-30T11:33:49.087Z,42.49
2018-07-30T11:34:49.132Z,44.06
2018-07-30T11:35:49.042Z,43.86
2018-07-30T11:36:49.032Z,42.39
2018-07-30T11:37:49.009Z,46.81
2018-07-30T11:38:48.994Z,43.86
2018-07-30T11:39:49.002Z,42.27
2018-07-30T11:40:48.959Z,43.57
2018-07-30T11:41:48.957Z,45.34
2018-07-30T11:42:48.986Z,43.08
2018-07-30T11:43:48.905Z,44.06
2018-07-30T11:44:48.911Z,42.68
2018-07-30T11:45:48.880Z,44.62
2018-07-30T11:46:48.859Z,45.98
2018-07-30T11:47:48.884Z,48.13
2018-07-30T11:48:48.946Z,46.56
2018-07-30T11:49:48.828Z,47.45
2018-07-30T11:50:48.806Z,45.29
2018-07-30T11:51:48.803Z,45.59
2018-07-30T11:52:48.778Z,44.80
2018-07-30T11:53:48.716Z,46.30
2018-07-30T11:54:48.703Z,46.69
2018-07-30T11:55:48.690Z,44.04
2018-07-30T11:56:48.665Z,45.70
2018-07-30T11:57:48.701Z,45.80
2018-07-30T11:58:48.685Z,42.15
2018-07-30T11:59:48.607Z,43.72
2018-07-30T12:00:48.592Z,45.09
2018-07-30T12:01:48.634Z,44.41
2018-07-30T12:02:48.549Z,46.59
2018-07-30T12:03:48.533Z,42.86
2018-07-30T12:04:48.550Z,45.92
2018-07-30T12:05:48.488Z,46.02
2018-07-30T12:06:48.478Z,43.88
2018-07-30T12:07:48.453Z,44.87
2018-07-30T12:08:48.447Z,42.35
2018-07-30T12:09:48.456Z,45.07
2018-07-30T12:10:48.395Z,42.44
2018-07-30T12:11:48.386Z,38.51
2018-07-30T12:12:48.356Z,42.55
2018-07-30T12:13:48.348Z,39.97
2018-07-30T12:14:48.317Z,41.11
2018-07-30T12:15:48.322Z,41.51
2018-07-30T12:16:48.287Z,40.78
2018-07-30T12:17:48.285Z,39.90
2018-07-30T12:18:48.255Z,42.06
2018-07-30T12:19:48.239Z,41.74
2018-07-30T12:20:48.243Z,41.43
2018-07-30T12:21:48.221Z,41.02
2018-07-30T12:22:48.181Z,42.66
2018-07-30T12:23:48.190Z,43.65
2018-07-30T12:24:48.124Z,46.39
2018-07-30T12:25:48.104Z,45.90
2018-07-30T12:26:48.159Z,44.12
2018-07-30T12:27:48.095Z,47.55
2018-07-30T12:28:48.048Z,42.25
2018-07-30T12:29:48.035Z,42.25
2018-07-30T12:30:48.032Z,42.55
2018-07-30T12:31:47.999Z,42.55
2018-07-30T12:32:47.982Z,44.62
2018-07-30T12:33:48.006Z,41.33
2018-07-30T12:34:47.932Z,41.24
2018-07-30T12:35:47.920Z,39.88
2018-07-30T12:36:47.962Z,42.99
2018-07-30T12:37:47.887Z,38.10
2018-07-30T12:38:47.914Z,36.57
2018-07-30T12:39:47.879Z,37.43
2018-07-30T12:40:47.827Z,38.93
2018-07-30T12:41:47.820Z,36.78
2018-07-30T12:42:47.788Z,36.48
2018-07-30T12:43:47.781Z,36.11
2018-07-30T12:44:47.785Z,36.00
2018-07-30T12:45:47.732Z,33.74
2018-07-30T12:46:47.718Z,36.29
2018-07-30T12:47:47.701Z,35.22
2018-07-30T12:48:47.676Z,38.71
2018-07-30T12:49:47.647Z,37.72
2018-07-30T12:50:47.639Z,34.97
2018-07-30T12:51:47.648Z,34.69
2018-07-30T12:52:47.604Z,34.01
2018-07-30T12:53:47.625Z,33.42
2018-07-30T12:54:47.570Z,32.83